Time;durP1;ratioP1;P1;durP2;ratioP2;P2;SDS_P1;SDS_P2;PMS_P1;PMS_P2;Temp;Humidity;BMP_temperature;BMP_pressure;BME280_temperature;BME280_humidity;BME280_pressure;Samples;Min_cycle;Max_cycle;Signal;HPM_P1;HPM_P2
2022/09/18 00:00:27;;;;;;;1.17;1.08;;;;;;;9.47;100.00;101872.63;10421323;28;20103;-75
2022/09/18 00:05:29;;;;;;;0.80;0.20;;;;;;;9.42;100.00;101877.53;10403310;28;20045;-76
2022/09/18 00:10:31;;;;;;;0.05;0.05;;;;;;;9.46;100.00;101876.91;10421032;28;20060;-76
2022/09/18 00:15:32;;;;;;;2.72;0.30;;;;;;;9.47;100.00;101888.94;10420802;28;20112;-76
2022/09/18 00:20:35;;;;;;;0.00;0.00;;;;;;;9.47;100.00;101883.81;10420599;28;20433;-75
2022/09/18 00:25:37;;;;;;;0.00;0.00;;;;;;;9.45;100.00;101890.56;10420325;28;20037;-75
2022/09/18 00:30:38;;;;;;;0.00;0.00;;;;;;;9.49;100.00;101883.88;10430313;28;20472;-76
2022/09/18 00:35:44;;;;;;;3.55;0.57;;;;;;;9.52;100.00;101872.03;10419442;28;20539;-75
2022/09/18 00:40:46;;;;;;;0.40;0.03;;;;;;;9.45;100.00;101875.13;10418813;28;20050;-76
2022/09/18 00:45:58;;;;;;;0.00;0.00;;;;;;;9.48;100.00;101872.72;10401825;28;20451;-75
2022/09/18 00:51:00;;;;;;;1.55;0.50;;;;;;;9.52;100.00;101877.16;10401925;28;20061;-76
2022/09/18 00:56:03;;;;;;;0.10;0.00;;;;;;;9.53;100.00;101884.09;10420080;28;20056;-75
2022/09/18 01:01:06;;;;;;;0.03;0.00;;;;;;;9.62;100.00;101887.91;10419488;28;20137;-75
2022/09/18 01:06:18;;;;;;;0.40;0.05;;;;;;;9.62;100.00;101903.34;10418027;28;20087;-75
2022/09/18 01:11:39;;;;;;;0.00;0.00;;;;;;;9.65;100.00;101885.44;10418071;28;20056;-76
2022/09/18 01:17:18;;;;;;;0.15;0.10;;;;;;;9.75;100.00;101879.03;10400593;28;20053;-75
2022/09/18 01:22:48;;;;;;;0.00;0.00;;;;;;;9.72;100.00;101874.63;10417014;28;20091;-75
2022/09/18 01:28:14;;;;;;;0.00;0.00;;;;;;;9.76;100.00;101879.09;10418099;28;20129;-75
2022/09/18 01:33:30;;;;;;;1.45;0.60;;;;;;;9.78;100.00;101876.59;10400104;28;20386;-76
2022/09/18 01:38:37;;;;;;;0.10;0.10;;;;;;;9.77;100.00;101868.00;10419132;28;20045;-75
2022/09/18 01:43:43;;;;;;;0.10;0.10;;;;;;;9.82;100.00;101865.63;10417133;28;20096;-77
2022/09/18 01:48:57;;;;;;;0.00;0.00;;;;;;;9.84;100.00;101861.41;10417537;28;20052;-75
2022/09/18 01:54:04;;;;;;;0.20;0.20;;;;;;;9.84;100.00;101859.75;10399609;28;20041;-76
2022/09/18 01:59:12;;;;;;;0.00;0.00;;;;;;;9.84;100.00;101854.59;10414581;28;20041;-76
2022/09/18 02:04:26;;;;;;;0.00;0.00;;;;;;;9.90;100.00;101863.38;10427780;28;20045;-76
2022/09/18 02:09:29;;;;;;;0.05;0.05;;;;;;;9.91;100.00;101860.00;10416651;28;20049;-75
2022/09/18 02:14:37;;;;;;;1.35;0.45;;;;;;;9.95;100.00;101864.47;10398675;28;20088;-75
2022/09/18 02:20:09;;;;;;;0.43;0.43;;;;;;;9.97;100.00;101855.13;10415822;28;20049;-75
2022/09/18 02:25:14;;;;;;;0.00;0.00;;;;;;;10.02;100.00;101853.63;10414830;28;20204;-76
2022/09/18 02:30:17;;;;;;;0.05;0.00;;;;;;;10.02;100.00;101856.19;10414694;28;20412;-75
2022/09/18 02:35:19;;;;;;;0.00;0.00;;;;;;;10.01;100.00;101846.72;10414342;28;20052;-75
2022/09/18 02:40:34;;;;;;;0.70;0.05;;;;;;;10.05;100.00;101851.19;10415555;28;20088;-77
2022/09/18 02:45:51;;;;;;;0.25;0.20;;;;;;;10.09;100.00;101849.63;10414280;28;20040;-75
2022/09/18 02:51:20;;;;;;;0.03;0.03;;;;;;;10.10;100.00;101851.38;10414016;28;20076;-75
2022/09/18 02:56:25;;;;;;;0.35;0.10;;;;;;;10.14;100.00;101842.97;10414082;28;20458;-75
2022/09/18 03:01:31;;;;;;;0.47;0.25;;;;;;;10.12;100.00;101837.75;10413966;28;20042;-76
2022/09/18 03:06:32;;;;;;;0.00;0.00;;;;;;;10.15;100.00;101849.88;10413855;28;20045;-75
2022/09/18 03:11:35;;;;;;;0.10;0.00;;;;;;;10.16;100.00;101839.63;10420162;28;20046;-75
2022/09/18 03:16:37;;;;;;;0.63;0.22;;;;;;;10.19;100.00;101836.34;10422031;28;20046;-76
2022/09/18 03:21:39;;;;;;;0.20;0.10;;;;;;;10.15;100.00;101839.59;10405328;28;20053;-74
2022/09/18 03:26:43;;;;;;;0.65;0.17;;;;;;;10.16;100.00;101831.06;10421507;28;20046;-76
2022/09/18 03:31:45;;;;;;;0.00;0.00;;;;;;;10.15;100.00;101824.13;10421203;28;20401;-76
2022/09/18 03:36:47;;;;;;;0.00;0.00;;;;;;;10.14;100.00;101831.00;10421029;28;20046;-77
2022/09/18 03:41:50;;;;;;;0.00;0.00;;;;;;;10.16;100.00;101833.63;10404652;28;20095;-77
2022/09/18 03:46:52;;;;;;;0.20;0.00;;;;;;;10.15;100.00;101843.06;10420879;28;20501;-76
2022/09/18 03:58:47;;;;;;;0.00;0.00;;;;;;;10.17;100.00;101858.56;10422137;28;20045;-75
2022/09/18 04:04:03;;;;;;;0.38;0.15;;;;;;;10.15;100.00;101845.63;10420463;28;20394;-76
2022/09/18 04:09:24;;;;;;;0.00;0.00;;;;;;;10.10;100.00;101843.66;10420811;28;20057;-75
2022/09/18 04:14:27;;;;;;;1.08;0.10;;;;;;;10.08;100.00;101848.75;10420217;28;20049;-75
2022/09/18 04:19:32;;;;;;;0.00;0.00;;;;;;;10.07;100.00;101872.75;10419392;28;20078;-75
2022/09/18 04:24:35;;;;;;;0.00;0.00;;;;;;;10.07;100.00;101867.59;10420626;28;20050;-75
2022/09/18 04:29:37;;;;;;;0.00;0.00;;;;;;;10.06;100.00;101873.56;10403079;28;20100;-75
2022/09/18 04:34:41;;;;;;;0.10;0.10;;;;;;;10.09;100.00;101871.09;10402705;28;20037;-76
2022/09/18 04:39:45;;;;;;;0.00;0.00;;;;;;;10.10;100.00;101878.00;10418880;28;20140;-75
2022/09/18 04:44:48;;;;;;;0.00;0.00;;;;;;;10.12;100.00;101880.66;10418551;28;20051;-76
2022/09/18 04:49:49;;;;;;;0.00;0.00;;;;;;;10.09;100.00;101881.38;10420035;28;20072;-76
2022/09/18 04:54:52;;;;;;;0.00;0.00;;;;;;;10.08;100.00;101879.66;10417952;28;20037;-75
2022/09/18 04:59:54;;;;;;;1.55;0.20;;;;;;;10.07;100.00;101872.75;10418038;28;20392;-75
2022/09/18 05:04:56;;;;;;;0.00;0.00;;;;;;;10.09;100.00;101873.66;10417848;28;20107;-75
2022/09/18 05:10:07;;;;;;;0.55;0.55;;;;;;;10.09;100.00;101871.09;10402312;28;20111;-76
2022/09/18 05:15:10;;;;;;;0.15;0.15;;;;;;;10.12;100.00;101876.38;10417279;28;20479;-75
2022/09/18 05:20:13;;;;;;;0.30;0.30;;;;;;;10.14;100.00;101877.34;10400544;28;20042;-75
2022/09/18 05:25:15;;;;;;;0.35;0.17;;;;;;;10.14;100.00;101869.63;10400451;28;20520;-76
2022/09/18 05:30:19;;;;;;;1.35;0.35;;;;;;;10.14;100.00;101868.72;10416416;28;20570;-76
2022/09/18 05:35:32;;;;;;;0.25;0.08;;;;;;;10.14;100.00;101863.56;10416842;28;20392;-75
2022/09/18 05:40:36;;;;;;;0.38;0.00;;;;;;;10.16;100.00;101861.94;10400446;28;20053;-76
2022/09/18 05:45:38;;;;;;;0.17;0.10;;;;;;;10.21;100.00;101864.72;10399709;28;20045;-75
2022/09/18 05:50:50;;;;;;;0.05;0.05;;;;;;;10.21;100.00;101864.72;10400356;28;20045;-76
2022/09/18 05:55:53;;;;;;;0.10;0.10;;;;;;;10.24;100.00;101854.56;10399598;28;20050;-75
2022/09/18 06:00:56;;;;;;;0.30;0.25;;;;;;;10.23;100.00;101853.66;10399335;28;20053;-75
2022/09/18 06:06:05;;;;;;;0.40;0.20;;;;;;;10.31;100.00;101856.59;10399094;28;20064;-75
2022/09/18 06:11:09;;;;;;;0.00;0.00;;;;;;;10.27;100.00;101859.81;10398820;28;20412;-76
2022/09/18 06:16:11;;;;;;;0.00;0.00;;;;;;;10.30;100.00;101867.69;10398856;28;20069;-76
2022/09/18 06:21:24;;;;;;;0.10;0.00;;;;;;;10.33;100.00;101867.81;10400369;28;20057;-75
2022/09/18 06:26:51;;;;;;;0.00;0.00;;;;;;;10.37;100.00;101862.03;10422198;28;20049;-76
2022/09/18 06:31:55;;;;;;;0.00;0.00;;;;;;;10.37;100.00;101864.59;10448226;28;20072;-75
2022/09/18 06:37:00;;;;;;;0.00;0.00;;;;;;;10.34;100.00;101869.56;10430119;28;20087;-76
2022/09/18 06:42:16;;;;;;;0.10;0.10;;;;;;;10.34;100.00;101868.72;10416234;28;20057;-76
2022/09/18 06:47:45;;;;;;;0.00;0.00;;;;;;;10.39;100.00;101880.97;10414882;28;20121;-76
2022/09/18 06:52:48;;;;;;;0.00;0.00;;;;;;;10.41;100.00;101883.66;10414253;28;20060;-75
2022/09/18 06:58:16;;;;;;;0.00;0.00;;;;;;;10.38;100.00;101875.78;10413999;28;20060;-75
2022/09/18 07:03:20;;;;;;;0.00;0.00;;;;;;;10.33;100.00;101885.84;10413779;28;20092;-75
2022/09/18 07:09:05;;;;;;;0.05;0.03;;;;;;;10.28;100.00;101883.06;10437297;28;20049;-75
2022/09/18 07:14:24;;;;;;;0.00;0.00;;;;;;;10.32;100.00;101884.06;10455160;28;20069;-76
2022/09/18 07:19:31;;;;;;;0.00;0.00;;;;;;;10.44;100.00;101873.44;10438799;28;20052;-76
2022/09/18 07:24:32;;;;;;;0.00;0.00;;;;;;;10.48;100.00;101875.34;10438088;28;20480;-75
2022/09/18 07:29:34;;;;;;;0.00;0.00;;;;;;;10.54;100.00;101878.19;10437933;28;20160;-77
2022/09/18 07:34:36;;;;;;;0.00;0.00;;;;;;;10.55;100.00;101876.47;10437928;28;20080;-75
2022/09/18 07:39:38;;;;;;;0.10;0.10;;;;;;;10.57;100.00;101875.75;10437824;28;20073;-75
2022/09/18 07:44:58;;;;;;;0.00;0.00;;;;;;;10.71;100.00;101868.56;10441392;28;20049;-75
2022/09/18 07:50:00;;;;;;;0.00;0.00;;;;;;;10.61;100.00;101876.75;10434467;28;20052;-75
2022/09/18 07:55:02;;;;;;;0.40;0.40;;;;;;;10.56;100.00;101888.53;10398276;28;20049;-75
2022/09/18 08:00:09;;;;;;;3.40;0.45;;;;;;;10.63;100.00;101885.41;10420148;28;20064;-75
2022/09/18 08:05:15;;;;;;;0.00;0.00;;;;;;;10.65;100.00;101882.91;10421630;28;20049;-76
2022/09/18 08:10:25;;;;;;;;;;;;;;;10.63;100.00;101880.25;10405558;28;20057;-77
2022/09/18 08:23:20;;;;;;;0.43;0.30;;;;;;;10.63;100.00;101890.56;10399886;28;20032;-75
2022/09/18 08:28:22;;;;;;;4.45;0.10;;;;;;;10.72;100.00;101893.53;10406739;28;20049;-77
2022/09/18 08:33:29;;;;;;;0.43;0.43;;;;;;;10.77;100.00;101896.28;10402130;28;20053;-77
2022/09/18 08:38:33;;;;;;;0.22;0.05;;;;;;;10.74;100.00;101904.78;10402022;28;20443;-77
2022/09/18 08:44:23;;;;;;;0.00;0.00;;;;;;;10.97;100.00;101902.28;10389118;28;20053;-76
2022/09/18 08:49:28;;;;;;;0.00;0.00;;;;;;;11.03;100.00;101891.28;10407282;28;20042;-76
2022/09/18 08:55:00;;;;;;;0.00;0.00;;;;;;;10.95;100.00;101889.28;10418042;28;20049;-77
2022/09/18 09:00:22;;;;;;;0.00;0.00;;;;;;;10.98;100.00;101883.41;10433399;28;20052;-75
2022/09/18 09:05:43;;;;;;;0.20;0.00;;;;;;;11.09;100.00;101876.97;10431156;28;20128;-76
2022/09/18 09:11:18;;;;;;;0.00;0.00;;;;;;;11.14;100.00;101868.50;10429902;28;20522;-76
2022/09/18 09:16:43;;;;;;;2.08;0.13;;;;;;;11.21;100.00;101860.19;10365693;28;20111;-76
2022/09/18 09:21:57;;;;;;;0.40;0.40;;;;;;;11.53;100.00;101852.81;10417013;28;20508;-77
2022/09/18 09:27:09;;;;;;;0.00;0.00;;;;;;;11.36;100.00;101834.97;10375919;28;20038;-77
2022/09/18 09:32:50;;;;;;;0.00;0.00;;;;;;;11.42;100.00;101840.41;10376040;28;20057;-76
2022/09/18 09:38:33;;;;;;;0.00;0.00;;;;;;;11.54;100.00;101823.59;10375408;28;20096;-77
2022/09/18 09:43:42;;;;;;;0.08;0.08;;;;;;;11.69;100.00;101790.59;10375289;28;20077;-77
2022/09/18 09:48:54;;;;;;;0.00;0.00;;;;;;;11.74;100.00;101786.47;10399644;28;20044;-77
2022/09/18 09:53:59;;;;;;;3.03;2.72;;;;;;;11.65;100.00;101765.50;10415561;28;20057;-76
2022/09/18 09:59:06;;;;;;;1.45;0.08;;;;;;;11.70;100.00;101753.63;10385266;28;20099;-76
2022/09/18 10:04:40;;;;;;;0.00;0.00;;;;;;;11.71;100.00;101739.91;10402139;28;20073;-77
2022/09/18 10:10:01;;;;;;;0.00;0.00;;;;;;;11.70;100.00;101721.75;10394191;28;20420;-76
2022/09/18 10:15:15;;;;;;;0.00;0.00;;;;;;;11.87;100.00;101715.47;10398777;28;20141;-77
2022/09/18 10:20:26;;;;;;;0.00;0.00;;;;;;;12.02;100.00;101712.56;10398305;28;20052;-77
2022/09/18 10:25:36;;;;;;;0.28;0.25;;;;;;;11.83;100.00;101711.06;10400059;28;20045;-77
2022/09/18 10:30:53;;;;;;;0.00;0.00;;;;;;;11.74;100.00;101703.84;10414560;28;20052;-76
2022/09/18 10:36:01;;;;;;;0.00;0.00;;;;;;;11.61;100.00;101698.25;10414205;28;20049;-76
2022/09/18 10:41:16;;;;;;;0.20;0.10;;;;;;;11.58;100.00;101696.41;10397991;28;20047;-76
2022/09/18 10:46:24;;;;;;;0.00;0.00;;;;;;;11.60;100.00;101687.03;10397817;28;20493;-77
2022/09/18 10:51:28;;;;;;;0.00;0.00;;;;;;;11.69;100.00;101694.22;10397871;28;20523;-77
2022/09/18 10:56:31;;;;;;;0.00;0.00;;;;;;;11.67;100.00;101675.22;10424204;28;20107;-77
2022/09/18 11:01:33;;;;;;;0.90;0.90;;;;;;;11.58;100.00;101673.19;10431470;28;20068;-75
2022/09/18 11:06:36;;;;;;;1.35;0.28;;;;;;;11.75;100.00;101669.47;10410500;28;20040;-77
2022/09/18 11:11:50;;;;;;;0.00;0.00;;;;;;;11.70;100.00;101676.19;10438470;28;20051;-75
2022/09/18 11:17:01;;;;;;;0.00;0.00;;;;;;;11.76;100.00;101685.84;10423704;28;20128;-77
2022/09/18 11:22:29;;;;;;;0.17;0.10;;;;;;;11.67;100.00;101680.38;10422974;28;20108;-76
2022/09/18 11:27:49;;;;;;;0.00;0.00;;;;;;;11.67;100.00;101690.69;10423080;28;20057;-75
2022/09/18 11:32:57;;;;;;;0.00;0.00;;;;;;;11.67;100.00;101696.72;10404886;28;20588;-76
2022/09/18 11:38:06;;;;;;;0.00;0.00;;;;;;;11.80;100.00;101707.50;10404757;28;20069;-75
2022/09/18 11:43:35;;;;;;;2.83;0.47;;;;;;;11.63;100.00;101710.38;10414961;28;20045;-76
2022/09/18 11:49:02;;;;;;;0.00;0.00;;;;;;;11.38;100.00;101713.78;10433079;28;20069;-75
2022/09/18 11:54:38;;;;;;;0.00;0.00;;;;;;;11.37;100.00;101723.22;10431247;28;20042;-75
2022/09/18 11:59:48;;;;;;;0.08;0.03;;;;;;;11.35;100.00;101735.22;10422566;28;20054;-75
2022/09/18 12:05:12;;;;;;;0.00;0.00;;;;;;;11.37;100.00;101748.16;10412498;28;20041;-76
2022/09/18 12:10:46;;;;;;;0.45;0.00;;;;;;;11.39;100.00;101762.84;10431279;28;20144;-75
2022/09/18 12:15:57;;;;;;;0.00;0.00;;;;;;;11.25;100.00;101762.34;10432207;28;20033;-76
2022/09/18 12:21:08;;;;;;;0.00;0.00;;;;;;;11.22;100.00;101763.94;10414700;28;20111;-76
2022/09/18 12:26:21;;;;;;;0.00;0.00;;;;;;;11.18;100.00;101744.03;10428520;28;20044;-75
2022/09/18 12:31:55;;;;;;;0.10;0.10;;;;;;;11.14;100.00;101734.41;10429082;28;20041;-77
2022/09/18 12:37:15;;;;;;;0.00;0.00;;;;;;;11.18;100.00;101744.03;10407771;28;20042;-77
2022/09/18 12:43:02;;;;;;;0.00;0.00;;;;;;;11.01;100.00;101749.41;10401879;28;20448;-76
2022/09/18 12:48:03;;;;;;;0.00;0.00;;;;;;;10.97;100.00;101752.72;10397639;28;20088;-77
2022/09/18 12:53:26;;;;;;;0.00;0.00;;;;;;;10.87;100.00;101764.34;10419362;28;20053;-75
2022/09/18 12:58:34;;;;;;;0.00;0.00;;;;;;;10.78;100.00;101777.78;10415454;28;20034;-76
2022/09/18 13:03:39;;;;;;;0.00;0.00;;;;;;;10.50;100.00;101774.94;10402650;28;20050;-76
2022/09/18 13:08:51;;;;;;;0.00;0.00;;;;;;;9.93;100.00;101760.56;10391677;28;20493;-76
2022/09/18 13:13:58;;;;;;;0.00;0.00;;;;;;;9.83;100.00;101743.84;10377888;28;20042;-77
2022/09/18 13:19:12;;;;;;;0.00;0.00;;;;;;;9.78;100.00;101735.94;10407334;28;20045;-77
2022/09/18 13:24:22;;;;;;;0.00;0.00;;;;;;;9.75;100.00;101732.38;10444278;28;20041;-75
2022/09/18 13:29:51;;;;;;;0.00;0.00;;;;;;;9.75;100.00;101729.78;10414898;28;20121;-77
2022/09/18 13:34:55;;;;;;;0.00;0.00;;;;;;;9.86;100.00;101743.09;10415374;28;20034;-76
2022/09/18 13:40:00;;;;;;;0.00;0.00;;;;;;;9.85;100.00;101752.50;10419487;28;20532;-76
2022/09/18 13:45:11;;;;;;;0.00;0.00;;;;;;;9.95;100.00;101754.66;10414180;28;20370;-75
2022/09/18 13:50:17;;;;;;;0.00;0.00;;;;;;;10.00;100.00;101757.44;10410854;28;20042;-77
2022/09/18 13:55:18;;;;;;;0.00;0.00;;;;;;;9.94;100.00;101760.63;10415852;28;20124;-75
2022/09/18 14:00:20;;;;;;;0.10;0.10;;;;;;;10.04;100.00;101759.31;10415196;28;20049;-77
2022/09/18 14:05:34;;;;;;;0.00;0.00;;;;;;;10.08;100.00;101771.50;10398887;28;20542;-76
2022/09/18 14:10:46;;;;;;;4.10;0.25;;;;;;;10.15;100.00;101799.28;10413537;28;20045;-77
2022/09/18 14:16:23;;;;;;;0.10;0.00;;;;;;;10.13;100.00;101816.34;10376994;28;20508;-77
2022/09/18 14:21:30;;;;;;;0.63;0.15;;;;;;;10.19;100.00;101840.59;10406219;28;20045;-77
2022/09/18 14:26:33;;;;;;;0.32;0.00;;;;;;;9.96;100.00;101822.47;10404610;28;20060;-78
2022/09/18 14:31:44;;;;;;;0.00;0.00;;;;;;;9.99;100.00;101822.59;10424737;28;20120;-76
2022/09/18 14:36:57;;;;;;;0.00;0.00;;;;;;;9.81;100.00;101802.97;10415516;28;20048;-76
2022/09/18 14:42:34;;;;;;;0.10;0.08;;;;;;;9.88;100.00;101793.84;10407137;28;20045;-76
2022/09/18 14:48:06;;;;;;;0.00;0.00;;;;;;;9.81;100.00;101777.22;10416100;28;20104;-77
2022/09/18 14:53:23;;;;;;;0.00;0.00;;;;;;;9.76;100.00;101767.53;10413108;28;20053;-77
2022/09/18 14:58:32;;;;;;;0.00;0.00;;;;;;;9.75;100.00;101771.81;10400797;28;20085;-77
2022/09/18 15:03:47;;;;;;;5.75;0.10;;;;;;;9.89;100.00;101774.09;10397821;28;20046;-77
2022/09/18 15:08:52;;;;;;;0.00;0.00;;;;;;;9.93;100.00;101786.31;10403613;28;20401;-77
2022/09/18 15:13:57;;;;;;;0.00;0.00;;;;;;;9.99;100.00;101791.72;10398593;28;20045;-77
2022/09/18 15:19:01;;;;;;;0.00;0.00;;;;;;;10.05;100.00;101807.41;10421634;28;20534;-76
2022/09/18 15:24:02;;;;;;;0.88;0.10;;;;;;;10.14;100.00;101819.78;10395260;28;20133;-76
2022/09/18 15:29:14;;;;;;;0.00;0.00;;;;;;;10.11;100.00;101833.41;10398609;28;20537;-76
2022/09/18 15:34:22;;;;;;;0.00;0.00;;;;;;;10.15;100.00;101845.63;10402854;28;20041;-77
2022/09/18 15:40:02;;;;;;;0.10;0.10;;;;;;;10.19;100.00;101848.31;10395048;28;20034;-77
2022/09/18 15:45:04;;;;;;;0.00;0.00;;;;;;;10.05;100.00;101858.91;10387298;28;20056;-77
2022/09/18 15:50:11;;;;;;;1.35;0.17;;;;;;;9.93;100.00;101876.41;10419239;28;20048;-77
2022/09/18 15:55:25;;;;;;;0.00;0.00;;;;;;;9.82;100.00;101855.34;10419733;28;20053;-77
2022/09/18 16:00:31;;;;;;;0.00;0.00;;;;;;;9.75;100.00;101861.91;10403852;28;20400;-77
2022/09/18 16:05:36;;;;;;;0.00;0.00;;;;;;;9.62;100.00;101846.72;10391661;28;20129;-77
2022/09/18 16:10:38;;;;;;;0.00;0.00;;;;;;;9.61;100.00;101807.22;10407355;28;20140;-77
2022/09/18 16:15:46;;;;;;;0.00;0.00;;;;;;;9.46;100.00;101803.97;10440431;28;20034;-77
2022/09/18 16:20:52;;;;;;;1.85;0.25;;;;;;;9.41;100.00;101796.09;10415945;28;20443;-76
2022/09/18 16:26:09;;;;;;;0.00;0.00;;;;;;;9.18;100.00;101783.06;10420539;28;20045;-76
2022/09/18 16:31:13;;;;;;;0.00;0.00;;;;;;;9.08;100.00;101770.59;10435584;28;20071;-78
2022/09/18 16:36:33;;;;;;;0.10;0.10;;;;;;;9.02;100.00;101745.47;10461449;28;20037;-79
2022/09/18 16:41:35;;;;;;;0.00;0.00;;;;;;;9.02;100.00;101744.59;10442059;28;20041;-76
2022/09/18 16:46:41;;;;;;;0.32;0.32;;;;;;;8.98;100.00;101752.97;10420015;28;20045;-77
2022/09/18 16:51:43;;;;;;;0.00;0.00;;;;;;;9.03;100.00;101754.06;10419802;28;20064;-77
2022/09/18 16:56:50;;;;;;;0.00;0.00;;;;;;;8.93;100.00;101757.03;10405331;28;20088;-76
2022/09/18 17:01:52;;;;;;;0.50;0.10;;;;;;;9.01;100.00;101768.53;10390117;28;20111;-78
2022/09/18 17:07:05;;;;;;;2.45;0.38;;;;;;;9.00;100.00;101761.63;10414103;28;20120;-77
2022/09/18 17:12:07;;;;;;;0.00;0.00;;;;;;;9.08;100.00;101749.16;10357089;28;20482;-78
2022/09/18 17:17:12;;;;;;;0.00;0.00;;;;;;;9.04;100.00;101768.69;10440145;28;20040;-78
2022/09/18 17:22:14;;;;;;;0.00;0.00;;;;;;;9.01;100.00;101774.53;10433390;28;20135;-76
2022/09/18 17:27:16;;;;;;;0.00;0.00;;;;;;;9.00;100.00;101777.06;10426017;28;20046;-77
2022/09/18 17:32:18;;;;;;;0.98;0.98;;;;;;;8.94;100.00;101792.19;10427228;28;20045;-77
2022/09/18 17:37:21;;;;;;;0.05;0.05;;;;;;;8.92;100.00;101796.38;10428353;28;20471;-77
2022/09/18 17:42:23;;;;;;;0.00;0.00;;;;;;;8.91;100.00;101807.47;10426585;28;20153;-78
2022/09/18 17:47:24;;;;;;;0.30;0.08;;;;;;;8.86;100.00;101810.72;10410820;28;20128;-77
2022/09/18 17:52:31;;;;;;;0.00;0.00;;;;;;;8.77;100.00;101827.38;10430108;28;20045;-77
2022/09/18 17:57:34;;;;;;;0.00;0.00;;;;;;;8.71;100.00;101831.38;10426138;28;20463;-77
2022/09/18 18:02:36;;;;;;;0.00;0.00;;;;;;;8.68;100.00;101831.25;10427800;28;20504;-77
2022/09/18 18:07:37;;;;;;;1.00;0.20;;;;;;;8.63;100.00;101839.53;10410224;28;20096;-77
2022/09/18 18:12:39;;;;;;;0.00;0.00;;;;;;;8.63;100.00;101842.13;10426857;28;20397;-77
2022/09/18 18:17:41;;;;;;;0.20;0.20;;;;;;;8.55;100.00;101850.31;10458329;28;20200;-78
2022/09/18 18:22:43;;;;;;;0.00;0.00;;;;;;;8.55;100.00;101858.03;10454063;28;20088;-77
2022/09/18 18:34:38;;;;;;;0.00;0.00;;;;;;;8.48;100.00;101881.66;10431384;28;20057;-76
2022/09/18 18:39:43;;;;;;;0.00;0.00;;;;;;;8.51;100.00;101883.47;10428472;28;20116;-78
2022/09/18 18:44:45;;;;;;;0.00;0.00;;;;;;;8.53;100.00;101887.88;10394848;28;20053;-77
2022/09/18 18:49:47;;;;;;;0.00;0.00;;;;;;;8.55;100.00;101896.56;10444272;28;20033;-77
2022/09/18 18:54:49;;;;;;;0.00;0.00;;;;;;;8.45;100.00;101908.81;10428441;28;20045;-78
2022/09/18 18:59:50;;;;;;;0.00;0.00;;;;;;;8.49;100.00;101891.13;10421568;28;20076;-78
2022/09/18 19:04:56;;;;;;;0.90;0.25;;;;;;;8.52;100.00;101885.25;10433262;28;20489;-78
2022/09/18 19:10:01;;;;;;;0.00;0.00;;;;;;;8.51;100.00;101897.22;10459083;28;20068;-78
2022/09/18 19:15:02;;;;;;;0.10;0.10;;;;;;;8.54;100.00;101904.19;10431661;28;20053;-78
2022/09/18 19:20:05;;;;;;;0.00;0.00;;;;;;;8.50;100.00;101908.28;10463904;28;20045;-78
2022/09/18 19:25:07;;;;;;;0.00;0.00;;;;;;;8.46;100.00;101914.03;10431651;28;20048;-77
2022/09/18 19:30:09;;;;;;;0.00;0.00;;;;;;;8.45;100.00;101908.81;10427119;28;20042;-78
2022/09/18 19:35:10;;;;;;;0.00;0.00;;;;;;;8.40;100.00;101917.19;10414481;28;20120;-77
2022/09/18 19:40:12;;;;;;;0.00;0.00;;;;;;;8.33;100.00;101920.25;10413016;28;20507;-78
2022/09/18 19:45:18;;;;;;;0.68;0.05;;;;;;;8.34;100.00;101906.56;10414640;28;20049;-77
2022/09/18 19:50:35;;;;;;;0.00;0.00;;;;;;;8.24;100.00;101917.19;10415421;28;20033;-78
2022/09/18 19:55:37;;;;;;;0.30;0.10;;;;;;;8.40;100.00;101916.28;10404070;28;20073;-79
2022/09/18 20:00:40;;;;;;;0.00;0.00;;;;;;;8.37;100.00;101911.03;10407575;28;20092;-77
2022/09/18 20:05:42;;;;;;;0.00;0.00;;;;;;;8.29;100.00;101923.44;10434889;28;20123;-78
2022/09/18 20:10:45;;;;;;;0.00;0.00;;;;;;;8.35;100.00;101928.03;10433698;28;20092;-78
2022/09/18 20:16:01;;;;;;;0.03;0.03;;;;;;;8.31;100.00;101929.56;10422135;28;20107;-78
2022/09/18 20:21:06;;;;;;;0.00;0.00;;;;;;;8.37;100.00;101926.44;10437037;28;20049;-78
2022/09/18 20:26:12;;;;;;;0.15;0.00;;;;;;;8.32;100.00;101918.47;10443134;28;20067;-78
2022/09/18 20:31:15;;;;;;;0.00;0.00;;;;;;;8.38;100.00;101911.09;10419348;28;20140;-77
2022/09/18 20:36:17;;;;;;;0.00;0.00;;;;;;;8.36;100.00;101901.53;10453213;28;20045;-78
2022/09/18 20:41:20;;;;;;;0.20;0.20;;;;;;;8.39;100.00;101899.13;10438405;28;20124;-78
2022/09/18 20:52:50;;;;;;;0.00;0.00;;;;;;;8.26;100.00;101877.09;10407526;28;20048;-78
2022/09/18 20:57:52;;;;;;;0.00;0.00;;;;;;;8.23;100.00;101888.06;10418300;28;20050;-78
2022/09/18 21:02:53;;;;;;;0.77;0.47;;;;;;;8.32;100.00;101892.81;10419756;28;20045;-78
2022/09/18 21:08:01;;;;;;;0.10;0.10;;;;;;;8.33;100.00;101896.25;10430082;28;20048;-77
2022/09/18 21:13:05;;;;;;;1.00;0.55;;;;;;;8.36;100.00;101901.53;10401991;28;20124;-77
2022/09/18 21:18:07;;;;;;;0.32;0.32;;;;;;;8.47;100.00;101902.13;10419123;28;20088;-77
2022/09/18 21:28:32;;;;;;;0.08;0.08;;;;;;;8.64;100.00;101895.25;10418182;28;20440;-77
2022/09/18 21:33:36;;;;;;;0.20;0.20;;;;;;;8.76;100.00;101895.84;10418112;28;20045;-78
2022/09/18 21:38:41;;;;;;;0.00;0.00;;;;;;;8.73;100.00;101890.59;10400296;28;20481;-78
2022/09/18 21:43:46;;;;;;;0.00;0.00;;;;;;;8.68;100.00;101894.59;10417579;28;20073;-78
2022/09/18 21:48:54;;;;;;;1.80;0.20;;;;;;;8.75;100.00;101882.94;10400825;28;20045;-78
2022/09/18 21:54:20;;;;;;;0.00;0.00;;;;;;;8.71;100.00;101876.78;10442975;28;20041;-78
2022/09/18 21:59:24;;;;;;;0.25;0.20;;;;;;;8.69;100.00;101874.13;10405967;28;20057;-78
2022/09/18 22:04:31;;;;;;;0.82;0.52;;;;;;;8.67;100.00;101860.31;10417156;28;20049;-77
2022/09/18 22:09:37;;;;;;;0.38;0.32;;;;;;;8.56;100.00;101858.94;10417208;28;20049;-77
2022/09/18 22:14:39;;;;;;;0.22;0.20;;;;;;;8.59;100.00;101855.63;10415483;28;20103;-79
2022/09/18 22:19:41;;;;;;;5.50;1.35;;;;;;;8.51;100.00;101853.56;10416437;28;20095;-78
2022/09/18 22:24:42;;;;;;;0.00;0.00;;;;;;;8.40;100.00;101864.94;10417505;28;20128;-78
2022/09/18 22:29:44;;;;;;;0.10;0.10;;;;;;;8.48;100.00;101881.66;10415826;28;20048;-77
2022/09/18 22:34:46;;;;;;;0.00;0.00;;;;;;;8.39;100.00;101906.81;10432430;28;20085;-77
2022/09/18 22:39:48;;;;;;;0.00;0.00;;;;;;;8.32;100.00;101920.16;10439168;28;20055;-78
2022/09/18 22:44:49;;;;;;;0.00;0.00;;;;;;;8.43;100.00;101926.72;10455644;28;20084;-78
2022/09/18 22:49:51;;;;;;;0.00;0.00;;;;;;;8.50;100.00;101933.97;10456944;28;20545;-78
2022/09/18 22:54:52;;;;;;;0.00;0.00;;;;;;;8.49;100.00;101939.91;10455620;28;20064;-77
2022/09/18 22:59:54;;;;;;;0.00;0.00;;;;;;;8.50;100.00;101951.97;10456894;28;20084;-78
2022/09/18 23:04:55;;;;;;;0.00;0.00;;;;;;;8.52;100.00;101952.94;10441089;28;20080;-78
2022/09/18 23:09:57;;;;;;;0.08;0.03;;;;;;;8.53;100.00;101959.81;10448447;28;20037;-77
2022/09/18 23:14:58;;;;;;;2.67;1.75;;;;;;;8.54;100.00;101970.97;10413918;28;20108;-78
2022/09/18 23:20:00;;;;;;;0.10;0.10;;;;;;;8.56;100.00;101977.09;10405150;28;20075;-77
2022/09/18 23:25:02;;;;;;;0.00;0.00;;;;;;;8.61;100.00;101983.34;10433914;28;20051;-77
2022/09/18 23:30:04;;;;;;;0.00;0.00;;;;;;;8.61;100.00;101985.91;10405244;28;20049;-77
2022/09/18 23:35:06;;;;;;;0.00;0.00;;;;;;;8.52;100.00;101962.31;10385088;28;20077;-78
2022/09/18 23:40:08;;;;;;;0.10;0.10;;;;;;;8.48;100.00;101978.38;10380461;28;20041;-78
2022/09/18 23:45:10;;;;;;;0.00;0.00;;;;;;;8.50;100.00;101995.63;10364402;28;20060;-78
2022/09/18 23:50:11;;;;;;;4.90;1.38;;;;;;;8.49;100.00;102004.13;10347621;28;20469;-77
2022/09/18 23:55:13;;;;;;;0.15;0.13;;;;;;;8.53;100.00;102000.91;10393766;28;20080;-77
